createdAt,value
2022-11-20T00:00:50.088Z,43.03
2022-11-20T00:03:16.406Z,42.96
2022-11-20T00:05:42.762Z,42.95
2022-11-20T00:08:09.089Z,42.96
2022-11-20T00:10:36.766Z,42.86
2022-11-20T00:13:03.145Z,42.97
2022-11-20T00:15:30.736Z,42.99
2022-11-20T00:17:57.228Z,42.99
2022-11-20T00:20:23.790Z,42.97
2022-11-20T00:22:50.522Z,43.11
2022-11-20T00:25:17.224Z,42.95
2022-11-20T00:27:43.692Z,43.04
2022-11-20T00:30:14.629Z,43.02
2022-11-20T00:32:42.606Z,43.05
2022-11-20T00:35:09.034Z,43.00
2022-11-20T00:37:35.402Z,42.90
2022-11-20T00:40:01.712Z,42.89
2022-11-20T00:42:28.035Z,43.25
2022-11-20T00:44:54.705Z,43.16
2022-11-20T00:47:21.027Z,43.03
2022-11-20T00:49:48.668Z,43.11
2022-11-20T00:52:14.962Z,43.10
2022-11-20T00:54:41.316Z,43.05
2022-11-20T00:57:07.760Z,43.02
2022-11-20T00:59:34.105Z,43.13
2022-11-20T01:02:00.520Z,43.18
2022-11-20T01:04:26.805Z,43.19
2022-11-20T01:06:54.443Z,43.10
2022-11-20T01:09:21.168Z,43.20
2022-11-20T01:11:47.710Z,43.03
2022-11-20T01:14:15.208Z,43.17
2022-11-20T01:16:43.197Z,43.12
2022-11-20T01:19:14.793Z,42.98
2022-11-20T01:21:44.781Z,43.19
2022-11-20T01:24:13.353Z,42.99
2022-11-20T01:26:40.866Z,43.33
2022-11-20T01:29:07.940Z,43.24
2022-11-20T01:31:35.277Z,43.05
2022-11-20T01:34:03.507Z,43.15
2022-11-20T01:36:31.216Z,43.16
2022-11-20T01:38:58.472Z,43.18
2022-11-20T01:41:26.681Z,43.18
2022-11-20T01:43:53.019Z,43.24
2022-11-20T01:46:19.900Z,43.19
2022-11-20T01:48:50.057Z,43.24
2022-11-20T01:51:19.467Z,43.14
2022-11-20T01:53:46.548Z,43.17
2022-11-20T01:56:14.384Z,43.24
2022-11-20T01:58:45.394Z,43.17
2022-11-20T02:01:12.607Z,43.21
2022-11-20T02:03:39.269Z,43.31
2022-11-20T02:06:10.971Z,43.11
2022-11-20T02:08:38.350Z,43.17
2022-11-20T02:11:04.662Z,43.24
2022-11-20T02:13:30.976Z,43.40
2022-11-20T02:15:58.774Z,43.25
2022-11-20T02:18:25.417Z,43.33
2022-11-20T02:20:54.826Z,43.03
2022-11-20T02:23:23.542Z,43.07
2022-11-20T02:25:52.254Z,43.31
2022-11-20T02:28:18.861Z,43.28
2022-11-20T02:30:45.159Z,43.43
2022-11-20T02:33:11.540Z,43.34
2022-11-20T02:35:42.608Z,43.49
2022-11-20T02:38:09.304Z,43.26
2022-11-20T02:40:35.619Z,43.30
2022-11-20T02:43:03.283Z,43.28
2022-11-20T02:45:29.723Z,43.27
2022-11-20T02:47:56.335Z,43.39
2022-11-20T02:50:22.771Z,43.39
2022-11-20T02:52:49.213Z,43.29
2022-11-20T02:55:15.606Z,43.40
2022-11-20T02:57:41.953Z,43.45
2022-11-20T03:00:10.370Z,43.26
2022-11-20T03:02:36.697Z,43.39
2022-11-20T03:05:03.267Z,43.49
2022-11-20T03:07:29.652Z,43.47
2022-11-20T03:09:56.274Z,43.40
2022-11-20T03:12:22.585Z,43.62
2022-11-20T03:14:53.113Z,43.40
2022-11-20T03:17:21.030Z,43.57
2022-11-20T03:19:47.349Z,43.50
2022-11-20T03:22:13.752Z,43.59
2022-11-20T03:24:40.037Z,43.68
2022-11-20T03:27:06.363Z,43.46
2022-11-20T03:29:32.734Z,43.51
2022-11-20T03:31:59.219Z,43.47
2022-11-20T03:34:26.889Z,43.69
2022-11-20T03:36:53.352Z,43.53
2022-11-20T03:39:20.059Z,43.66
2022-11-20T03:41:46.730Z,43.51
2022-11-20T03:44:13.078Z,43.64
2022-11-20T03:46:39.432Z,43.61
2022-11-20T03:49:05.785Z,43.57
2022-11-20T03:51:34.315Z,43.65
2022-11-20T03:54:01.480Z,43.68
2022-11-20T03:56:28.896Z,43.67
2022-11-20T03:58:55.692Z,43.71
2022-11-20T04:01:22.839Z,43.72
2022-11-20T04:03:49.666Z,43.71
2022-11-20T04:06:16.825Z,43.65
2022-11-20T04:08:46.614Z,43.76
2022-11-20T04:11:15.696Z,43.71
2022-11-20T04:13:42.689Z,43.88
2022-11-20T04:16:09.883Z,43.83
2022-11-20T04:18:36.621Z,43.89
2022-11-20T04:21:03.224Z,43.98
2022-11-20T04:23:29.540Z,43.94
2022-11-20T04:26:01.653Z,44.06
2022-11-20T04:28:27.945Z,43.90
2022-11-20T04:30:54.224Z,44.10
2022-11-20T04:33:20.538Z,44.08
2022-11-20T04:35:48.153Z,44.00
2022-11-20T04:38:14.442Z,43.99
2022-11-20T04:40:40.861Z,44.00
2022-11-20T04:43:08.475Z,44.05
2022-11-20T04:45:34.874Z,44.11
2022-11-20T04:48:01.238Z,44.09
2022-11-20T04:50:27.847Z,44.27
2022-11-20T04:52:54.623Z,44.33
2022-11-20T04:55:20.962Z,44.19
2022-11-20T04:57:50.351Z,44.16
2022-11-20T05:00:18.180Z,44.29
2022-11-20T05:02:44.646Z,44.33
2022-11-20T05:05:10.943Z,44.32
2022-11-20T05:07:37.296Z,44.61
2022-11-20T05:10:03.892Z,44.38
2022-11-20T05:12:30.312Z,44.47
2022-11-20T05:14:56.868Z,44.45
2022-11-20T05:17:24.617Z,44.49
2022-11-20T05:19:53.205Z,44.42
2022-11-20T05:22:19.660Z,44.56
2022-11-20T05:24:46.005Z,44.49
2022-11-20T05:27:12.313Z,44.56
2022-11-20T05:29:38.669Z,44.58
2022-11-20T05:32:05.248Z,44.63
2022-11-20T05:34:32.896Z,44.59
2022-11-20T05:36:59.260Z,44.49
2022-11-20T05:39:25.563Z,44.61
2022-11-20T05:41:51.876Z,44.77
2022-11-20T05:44:18.335Z,44.76
2022-11-20T05:46:44.680Z,44.88
2022-11-20T05:49:11.053Z,44.89
2022-11-20T05:51:38.664Z,44.79
2022-11-20T05:54:05.016Z,44.95
2022-11-20T05:56:31.413Z,44.90
2022-11-20T05:58:57.719Z,44.76
2022-11-20T06:01:25.085Z,44.81
2022-11-20T06:03:52.184Z,44.98
2022-11-20T06:06:19.069Z,45.01
2022-11-20T06:08:46.998Z,45.09
2022-11-20T06:11:13.951Z,44.94
2022-11-20T06:13:42.262Z,45.04
2022-11-20T06:16:09.756Z,45.05
2022-11-20T06:18:36.173Z,45.06
2022-11-20T06:21:04.065Z,44.97
2022-11-20T06:23:31.140Z,45.18
2022-11-20T06:26:01.447Z,45.10
2022-11-20T06:28:27.867Z,44.98
2022-11-20T06:30:54.297Z,44.96
2022-11-20T06:33:20.678Z,45.22
2022-11-20T06:35:46.953Z,45.18
2022-11-20T06:38:13.274Z,45.19
2022-11-20T06:40:40.665Z,45.16
2022-11-20T06:43:08.317Z,45.29
2022-11-20T06:45:34.768Z,45.24
2022-11-20T06:48:01.170Z,45.25
2022-11-20T06:50:27.439Z,45.27
2022-11-20T06:52:53.842Z,45.29
2022-11-20T06:55:20.156Z,45.53
2022-11-20T06:57:47.998Z,45.54
2022-11-20T07:00:17.431Z,45.34
2022-11-20T07:02:43.784Z,45.33
2022-11-20T07:05:10.120Z,45.44
2022-11-20T07:07:36.492Z,45.33
2022-11-20T07:10:02.907Z,45.53
2022-11-20T07:12:29.232Z,45.52
2022-11-20T07:14:55.594Z,45.45
2022-11-20T07:17:23.220Z,45.48
2022-11-20T07:19:49.818Z,45.25
2022-11-20T07:22:16.106Z,45.60
2022-11-20T07:24:46.009Z,45.70
2022-11-20T07:27:12.794Z,45.61
2022-11-20T07:29:39.112Z,45.56
2022-11-20T07:32:05.470Z,45.60
2022-11-20T07:34:33.131Z,45.70
2022-11-20T07:36:59.476Z,45.73
2022-11-20T07:39:25.861Z,45.88
2022-11-20T07:41:52.194Z,45.80
2022-11-20T07:44:18.852Z,45.71
2022-11-20T07:46:45.169Z,45.89
2022-11-20T07:49:11.525Z,45.76
2022-11-20T07:51:39.340Z,46.02
2022-11-20T07:54:05.810Z,45.84
2022-11-20T07:56:32.247Z,46.00
2022-11-20T07:58:58.568Z,45.96
2022-11-20T08:01:24.959Z,45.93
2022-11-20T08:03:51.340Z,45.93
2022-11-20T08:06:17.718Z,45.92
2022-11-20T08:08:45.267Z,45.96
2022-11-20T08:11:11.604Z,45.93
2022-11-20T08:13:37.952Z,46.08
2022-11-20T08:16:04.571Z,45.99
2022-11-20T08:18:32.490Z,46.09
2022-11-20T08:20:59.214Z,46.00
2022-11-20T08:23:25.759Z,46.05
2022-11-20T08:25:53.347Z,46.17
2022-11-20T08:28:22.308Z,46.18
2022-11-20T08:30:49.359Z,46.32
2022-11-20T08:33:15.675Z,46.20
2022-11-20T08:35:42.009Z,46.13
2022-11-20T08:38:09.495Z,46.29
2022-11-20T08:40:35.815Z,46.29
2022-11-20T08:43:03.396Z,46.27
2022-11-20T08:45:34.277Z,46.29
2022-11-20T08:48:01.962Z,46.38
2022-11-20T08:50:28.293Z,46.38
2022-11-20T08:52:54.634Z,46.32
2022-11-20T08:55:21.053Z,46.39
2022-11-20T08:57:50.769Z,46.44
2022-11-20T09:00:19.059Z,46.41
2022-11-20T09:02:45.381Z,46.58
2022-11-20T09:05:11.729Z,46.50
2022-11-20T09:07:38.329Z,46.45
2022-11-20T09:12:51.458Z,46.53
2022-11-20T09:15:19.089Z,46.50
2022-11-20T09:17:51.294Z,46.61
2022-11-20T09:20:17.681Z,46.53
2022-11-20T09:22:43.956Z,46.62
2022-11-20T09:25:10.248Z,46.74
2022-11-20T09:27:36.694Z,46.74
2022-11-20T09:30:03.316Z,46.68
2022-11-20T09:32:31.105Z,46.83
2022-11-20T09:34:57.449Z,46.95
2022-11-20T09:37:23.921Z,46.81
2022-11-20T09:39:50.252Z,47.01
2022-11-20T09:42:24.553Z,46.88
2022-11-20T09:44:59.477Z,46.97
2022-11-20T09:47:33.307Z,47.06
2022-11-20T09:50:07.964Z,46.86
2022-11-20T09:52:40.010Z,46.95
2022-11-20T09:55:09.701Z,46.88
2022-11-20T09:57:37.449Z,47.02
2022-11-20T10:00:05.534Z,46.87
2022-11-20T10:02:38.385Z,47.15
2022-11-20T10:05:10.042Z,47.07
2022-11-20T10:07:40.044Z,46.89
2022-11-20T10:10:06.530Z,46.96
2022-11-20T10:12:41.136Z,46.86
2022-11-20T10:15:13.864Z,46.93
2022-11-20T10:17:55.053Z,46.89
2022-11-20T10:20:28.522Z,46.96
2022-11-20T10:23:02.509Z,47.01
2022-11-20T10:25:31.937Z,47.12
2022-11-20T10:28:16.329Z,46.94
2022-11-20T10:30:43.951Z,46.91
2022-11-20T10:33:16.485Z,46.84
2022-11-20T10:35:45.492Z,46.98
2022-11-20T10:38:15.714Z,46.99
2022-11-20T10:40:43.967Z,46.97
2022-11-20T10:43:13.172Z,46.87
2022-11-20T10:45:48.115Z,46.81
2022-11-20T10:48:16.476Z,46.70
2022-11-20T10:50:50.807Z,46.66
2022-11-20T10:53:23.791Z,46.71
2022-11-20T10:55:54.847Z,46.83
2022-11-20T10:58:25.158Z,46.65
2022-11-20T11:00:51.531Z,46.57
2022-11-20T11:03:23.479Z,46.62
2022-11-20T11:05:52.725Z,46.49
2022-11-20T11:08:20.175Z,46.63
2022-11-20T11:10:49.308Z,46.67
2022-11-20T11:13:20.654Z,46.82
2022-11-20T11:15:47.123Z,46.81
2022-11-20T11:18:23.726Z,46.90
2022-11-20T11:20:52.414Z,46.98
2022-11-20T11:23:27.399Z,47.01
2022-11-20T11:25:57.567Z,46.94
2022-11-20T11:28:25.238Z,47.21
2022-11-20T11:30:51.721Z,47.11
2022-11-20T11:33:20.052Z,47.21
2022-11-20T11:35:51.086Z,47.09
2022-11-20T11:38:22.026Z,47.27
2022-11-20T11:40:48.390Z,47.10
2022-11-20T11:43:19.116Z,47.27
2022-11-20T11:45:52.479Z,47.17
2022-11-20T11:48:18.948Z,47.20
2022-11-20T11:50:49.206Z,47.12
2022-11-20T11:53:17.542Z,47.23
2022-11-20T11:55:47.371Z,47.28
2022-11-20T11:58:18.522Z,47.30
2022-11-20T12:00:49.168Z,47.48
2022-11-20T12:03:19.625Z,47.24
2022-11-20T12:05:47.935Z,47.41
2022-11-20T12:08:19.462Z,47.30
2022-11-20T12:10:50.903Z,47.28
2022-11-20T12:13:26.911Z,47.37
2022-11-20T12:15:53.991Z,47.27
2022-11-20T12:18:21.033Z,47.36
2022-11-20T12:20:54.654Z,47.28
2022-11-20T12:23:27.289Z,47.03
2022-11-20T12:25:57.765Z,47.06
2022-11-20T12:28:31.074Z,47.09
2022-11-20T12:31:06.984Z,46.88
2022-11-20T12:33:43.889Z,46.84
2022-11-20T12:36:18.847Z,47.17
2022-11-20T12:38:56.893Z,47.07
2022-11-20T12:41:29.574Z,46.99
2022-11-20T12:44:03.027Z,46.85
2022-11-20T12:46:34.343Z,46.91
2022-11-20T12:49:10.558Z,46.95
2022-11-20T12:51:50.106Z,46.97
2022-11-20T12:54:26.835Z,46.94
2022-11-20T12:57:03.461Z,46.96
2022-11-20T12:59:34.902Z,46.85
2022-11-20T13:02:06.268Z,46.92
2022-11-20T13:04:40.156Z,47.06
2022-11-20T13:07:07.610Z,47.05
2022-11-20T13:09:35.831Z,46.85
2022-11-20T13:12:06.406Z,46.85
2022-11-20T13:14:36.334Z,46.81
2022-11-20T13:17:06.477Z,46.45
2022-11-20T13:19:33.094Z,46.62
2022-11-20T13:21:59.408Z,46.58
2022-11-20T13:24:26.977Z,46.45
2022-11-20T13:27:02.152Z,46.41
2022-11-20T13:29:30.005Z,46.43
2022-11-20T13:32:07.724Z,46.53
2022-11-20T13:34:34.875Z,46.46
2022-11-20T13:37:01.299Z,46.42
2022-11-20T13:39:28.409Z,46.30
2022-11-20T13:41:56.046Z,46.47
2022-11-20T13:44:26.109Z,46.40
2022-11-20T13:46:53.987Z,46.44
2022-11-20T13:49:24.337Z,46.39
2022-11-20T13:51:51.572Z,46.41
2022-11-20T13:54:37.609Z,46.31
2022-11-20T13:57:08.581Z,46.31
2022-11-20T13:59:41.075Z,46.31
2022-11-20T14:02:12.417Z,46.43
2022-11-20T14:04:43.254Z,46.59
2022-11-20T14:07:10.173Z,46.68
2022-11-20T14:09:36.557Z,46.74
2022-11-20T14:12:03.932Z,46.96
2022-11-20T14:14:30.892Z,47.16
2022-11-20T14:17:05.881Z,47.12
2022-11-20T14:19:33.904Z,47.26
2022-11-20T14:22:08.924Z,47.25
2022-11-20T14:24:35.252Z,47.25
2022-11-20T14:27:01.623Z,47.49
2022-11-20T14:29:29.555Z,47.56
2022-11-20T14:31:57.363Z,47.58
2022-11-20T14:34:25.355Z,47.58
2022-11-20T14:36:56.690Z,47.72
2022-11-20T14:39:23.759Z,47.90
2022-11-20T14:41:51.630Z,47.69
2022-11-20T14:44:18.198Z,47.89
2022-11-20T14:46:44.717Z,47.80
2022-11-20T14:49:11.210Z,47.70
2022-11-20T14:51:38.531Z,47.83
2022-11-20T14:54:14.973Z,47.90
2022-11-20T14:56:41.756Z,48.17
2022-11-20T14:59:08.552Z,47.95
2022-11-20T15:01:35.453Z,47.80
2022-11-20T15:04:03.049Z,47.94
2022-11-20T15:06:29.766Z,47.92
2022-11-20T15:08:56.290Z,47.87
2022-11-20T15:11:28.454Z,47.75
2022-11-20T15:13:54.837Z,47.79
2022-11-20T15:16:22.157Z,47.85
2022-11-20T15:18:48.584Z,47.95
2022-11-20T15:21:15.747Z,48.04
2022-11-20T15:23:42.448Z,47.98
2022-11-20T15:26:09.776Z,48.12
2022-11-20T15:28:39.722Z,47.93
2022-11-20T15:31:06.609Z,48.07
2022-11-20T15:33:33.770Z,48.09
2022-11-20T15:36:00.373Z,48.01
2022-11-20T15:38:26.716Z,47.96
2022-11-20T15:40:53.060Z,48.16
2022-11-20T15:43:19.487Z,48.15
2022-11-20T15:45:48.598Z,48.10
2022-11-20T15:48:16.921Z,48.04
2022-11-20T15:50:47.696Z,47.99
2022-11-20T15:53:13.995Z,48.02
2022-11-20T15:55:40.500Z,48.03
2022-11-20T15:58:06.855Z,47.96
2022-11-20T16:00:33.130Z,48.04
2022-11-20T16:03:00.735Z,47.95
2022-11-20T16:05:28.584Z,47.98
2022-11-20T16:07:54.976Z,48.05
2022-11-20T16:10:21.373Z,47.98
2022-11-20T16:12:47.682Z,47.89
2022-11-20T16:15:14.148Z,48.01
2022-11-20T16:17:40.507Z,47.92
2022-11-20T16:20:12.780Z,47.95
2022-11-20T16:22:39.174Z,48.04
2022-11-20T16:25:05.914Z,47.98
2022-11-20T16:27:32.219Z,48.01
2022-11-20T16:29:58.601Z,47.90
2022-11-20T16:32:24.921Z,47.95
2022-11-20T16:34:51.239Z,47.86
2022-11-20T16:37:18.828Z,48.10
2022-11-20T16:39:45.168Z,47.97
2022-11-20T16:42:11.603Z,48.10
2022-11-20T16:44:37.974Z,48.00
2022-11-20T16:47:04.481Z,48.03
2022-11-20T16:49:31.137Z,48.20
2022-11-20T16:51:57.580Z,48.00
2022-11-20T16:54:25.451Z,48.02
2022-11-20T16:56:52.063Z,48.14
2022-11-20T16:59:18.524Z,47.98
2022-11-20T17:01:44.937Z,48.03
2022-11-20T17:04:11.325Z,48.18
2022-11-20T17:06:38.540Z,48.14
2022-11-20T17:09:05.113Z,48.23
2022-11-20T17:11:32.847Z,48.31
2022-11-20T17:13:59.240Z,48.20
2022-11-20T17:16:25.837Z,48.22
2022-11-20T17:18:58.166Z,48.48
2022-11-20T17:21:27.514Z,48.20
2022-11-20T17:23:53.922Z,48.16
2022-11-20T17:26:21.286Z,48.05
2022-11-20T17:28:53.024Z,48.14
2022-11-20T17:31:19.331Z,48.18
2022-11-20T17:33:46.319Z,48.11
2022-11-20T17:36:13.956Z,48.15
2022-11-20T17:38:40.420Z,48.07
2022-11-20T17:41:07.242Z,48.04
2022-11-20T17:43:35.874Z,48.03
2022-11-20T17:46:05.521Z,47.95
2022-11-20T17:48:31.884Z,48.05
2022-11-20T17:50:59.910Z,48.09
2022-11-20T17:53:26.237Z,48.14
2022-11-20T17:55:55.999Z,48.15
2022-11-20T17:58:22.538Z,48.06
2022-11-20T18:00:48.887Z,48.16
2022-11-20T18:03:16.573Z,48.24
2022-11-20T18:05:42.903Z,48.13
2022-11-20T18:08:09.211Z,48.29
2022-11-20T18:10:35.567Z,48.11
2022-11-20T18:13:02.038Z,48.33
2022-11-20T18:15:28.396Z,48.24
2022-11-20T18:17:54.721Z,48.28
2022-11-20T18:20:28.937Z,48.21
2022-11-20T18:22:57.009Z,48.32
2022-11-20T18:25:23.298Z,48.22
2022-11-20T18:27:49.741Z,48.46
2022-11-20T18:30:16.152Z,48.33
2022-11-20T18:32:42.432Z,48.32
2022-11-20T18:35:09.046Z,48.26
2022-11-20T18:37:36.715Z,48.42
2022-11-20T18:40:03.201Z,48.36
2022-11-20T18:42:29.569Z,48.32
2022-11-20T18:44:55.940Z,48.38
2022-11-20T18:47:23.441Z,48.35
2022-11-20T18:49:51.135Z,48.40
2022-11-20T18:52:18.589Z,48.29
2022-11-20T18:54:46.353Z,48.39
2022-11-20T18:57:12.684Z,48.38
2022-11-20T18:59:39.137Z,48.31
2022-11-20T19:02:05.921Z,48.46
2022-11-20T19:04:32.999Z,48.43
2022-11-20T19:06:59.457Z,48.40
2022-11-20T19:09:25.934Z,48.55
2022-11-20T19:11:53.654Z,48.34
2022-11-20T19:14:20.129Z,48.38
2022-11-20T19:16:49.580Z,48.38
2022-11-20T19:19:15.918Z,48.44
2022-11-20T19:21:42.286Z,48.23
2022-11-20T19:24:09.184Z,48.38
2022-11-20T19:26:36.296Z,48.44
2022-11-20T19:29:04.413Z,48.46
2022-11-20T19:31:31.109Z,48.36
2022-11-20T19:33:58.682Z,48.49
2022-11-20T19:36:25.912Z,48.40
2022-11-20T19:38:53.462Z,48.46
2022-11-20T19:41:20.716Z,48.44
2022-11-20T19:43:47.358Z,48.48
2022-11-20T19:46:15.052Z,48.61
2022-11-20T19:48:41.392Z,48.54
2022-11-20T19:51:08.628Z,48.70
2022-11-20T19:53:35.028Z,48.39
2022-11-20T19:56:01.589Z,48.58
2022-11-20T19:58:28.468Z,48.51
2022-11-20T20:00:54.865Z,48.60
2022-11-20T20:03:22.552Z,48.67
2022-11-20T20:05:49.047Z,48.61
2022-11-20T20:08:17.067Z,48.71
2022-11-20T20:10:43.520Z,48.75
2022-11-20T20:13:09.875Z,48.63
2022-11-20T20:15:39.483Z,48.76
2022-11-20T20:18:05.793Z,48.76
2022-11-20T20:20:33.399Z,48.75
2022-11-20T20:22:59.686Z,48.67
2022-11-20T20:25:26.038Z,48.90
2022-11-20T20:27:52.754Z,48.74
2022-11-20T20:30:19.287Z,48.70
2022-11-20T20:32:45.609Z,48.87
2022-11-20T20:35:11.902Z,48.79
2022-11-20T20:37:39.573Z,48.77
2022-11-20T20:40:09.744Z,48.79
2022-11-20T20:42:38.663Z,48.85
2022-11-20T20:45:05.258Z,48.87
2022-11-20T20:47:32.877Z,48.83
2022-11-20T20:49:59.250Z,48.95
2022-11-20T20:52:25.626Z,49.09
2022-11-20T20:54:53.348Z,48.83
2022-11-20T20:57:19.925Z,48.97
2022-11-20T20:59:46.294Z,48.80
2022-11-20T21:02:12.776Z,48.89
2022-11-20T21:04:39.224Z,48.75
2022-11-20T21:07:05.567Z,48.78
2022-11-20T21:09:31.906Z,48.83
2022-11-20T21:11:59.518Z,48.81
2022-11-20T21:14:26.284Z,48.94
2022-11-20T21:16:52.783Z,48.93
2022-11-20T21:19:19.467Z,48.97
2022-11-20T21:21:45.823Z,48.81
2022-11-20T21:24:12.137Z,48.69
2022-11-20T21:26:38.448Z,48.81
2022-11-20T21:29:06.100Z,48.76
2022-11-20T21:31:32.485Z,48.76
2022-11-20T21:33:59.077Z,48.79
2022-11-20T21:36:26.799Z,48.81
2022-11-20T21:38:53.658Z,48.77
2022-11-20T21:41:20.040Z,48.84
2022-11-20T21:43:58.773Z,48.86
2022-11-20T21:46:37.926Z,48.83
2022-11-20T21:49:04.405Z,48.86
2022-11-20T21:51:30.998Z,48.94
2022-11-20T21:53:57.353Z,48.78
2022-11-20T21:56:24.829Z,48.84
2022-11-20T21:58:51.519Z,48.90
2022-11-20T22:01:18.494Z,48.85
2022-11-20T22:03:48.643Z,48.89
2022-11-20T22:06:15.206Z,48.99
2022-11-20T22:08:41.582Z,48.84
2022-11-20T22:11:08.960Z,48.90
2022-11-20T22:13:35.601Z,48.80
2022-11-20T22:16:01.910Z,49.07
2022-11-20T22:18:28.422Z,49.04
2022-11-20T22:20:56.087Z,48.97
2022-11-20T22:23:22.396Z,48.86
2022-11-20T22:25:48.716Z,48.89
2022-11-20T22:28:14.993Z,48.84
2022-11-20T22:30:41.279Z,49.04
2022-11-20T22:33:13.059Z,49.07
2022-11-20T22:35:39.948Z,48.94
2022-11-20T22:38:07.763Z,48.96
2022-11-20T22:40:34.109Z,48.90
2022-11-20T22:43:00.421Z,48.93
2022-11-20T22:45:26.762Z,49.07
2022-11-20T22:47:53.061Z,49.03
2022-11-20T22:50:19.588Z,48.89
2022-11-20T22:52:45.924Z,49.00
2022-11-20T22:55:16.220Z,48.93
2022-11-20T22:57:42.918Z,49.04
2022-11-20T23:00:09.670Z,49.14
2022-11-20T23:02:35.973Z,48.99
2022-11-20T23:05:02.302Z,49.08
2022-11-20T23:07:28.716Z,48.93
2022-11-20T23:09:55.198Z,49.04
2022-11-20T23:12:22.824Z,48.98
2022-11-20T23:14:49.106Z,49.06
2022-11-20T23:17:15.426Z,48.98
2022-11-20T23:19:41.736Z,48.91
2022-11-20T23:22:08.160Z,49.06
2022-11-20T23:24:34.523Z,48.87
2022-11-20T23:27:00.874Z,49.00
2022-11-20T23:29:28.490Z,48.87
2022-11-20T23:31:54.852Z,48.92
2022-11-20T23:34:21.456Z,48.87
2022-11-20T23:36:47.818Z,48.97
2022-11-20T23:39:14.099Z,48.88
2022-11-20T23:41:40.547Z,48.81
2022-11-20T23:44:07.018Z,48.88
2022-11-20T23:46:34.764Z,48.96
2022-11-20T23:49:01.068Z,48.78
2022-11-20T23:51:27.415Z,48.95
2022-11-20T23:53:53.893Z,48.81
2022-11-20T23:56:20.254Z,48.80
2022-11-20T23:58:46.619Z,48.79
